Time;durP1;ratioP1;P1;durP2;ratioP2;P2;SDS_P1;SDS_P2;PMS_P1;PMS_P2;Temp;Humidity;BMP_temperature;BMP_pressure;BME280_temperature;BME280_humidity;BME280_pressure;Samples;Min_cycle;Max_cycle;Signal;HPM_P1;HPM_P2
2021/11/11 00:01:34;;;;;;;17.53;12.90;;;4.30;99.90;;;;;;5031246;28;20853;-71
2021/11/11 00:04:00;;;;;;;15.30;11.63;;;4.30;99.90;;;;;;5031513;28;20194;-71
2021/11/11 00:06:25;;;;;;;15.30;12.60;;;4.40;99.90;;;;;;5031133;28;20752;-71
2021/11/11 00:08:51;;;;;;;16.13;11.43;;;4.50;99.90;;;;;;5021494;28;20218;-71
2021/11/11 00:11:16;;;;;;;23.17;14.00;;;4.40;99.90;;;;;;5031182;28;20221;-71
2021/11/11 00:13:42;;;;;;;16.07;13.17;;;4.40;99.90;;;;;;5031446;28;20200;-71
2021/11/11 00:16:08;;;;;;;19.87;12.90;;;4.40;99.90;;;;;;5030746;28;20210;-71
2021/11/11 00:18:33;;;;;;;19.70;13.10;;;4.50;99.90;;;;;;5035013;28;20576;-70
2021/11/11 00:20:59;;;;;;;17.20;13.00;;;4.60;99.90;;;;;;5035848;28;20179;-71
2021/11/11 00:23:24;;;;;;;15.70;12.63;;;4.60;99.90;;;;;;5034939;28;20208;-71
2021/11/11 00:25:50;;;;;;;21.87;14.20;;;4.60;99.90;;;;;;5034592;28;20183;-71
2021/11/11 00:28:15;;;;;;;16.73;13.10;;;4.60;99.90;;;;;;5035217;28;20269;-70
2021/11/11 00:30:41;;;;;;;17.73;13.30;;;4.50;99.90;;;;;;5035084;28;20652;-71
2021/11/11 00:33:06;;;;;;;17.63;13.50;;;4.50;99.90;;;;;;5034761;28;20741;-71
2021/11/11 00:35:33;;;;;;;19.17;14.00;;;4.50;99.90;;;;;;5034520;28;20252;-72
2021/11/11 00:38:00;;;;;;;17.37;12.70;;;4.50;99.90;;;;;;5017262;28;20524;-71
2021/11/11 00:40:28;;;;;;;16.30;12.97;;;4.40;99.90;;;;;;5035088;28;20412;-71
2021/11/11 00:42:53;;;;;;;14.67;11.57;;;4.50;99.90;;;;;;5034280;28;20473;-71
2021/11/11 00:45:19;;;;;;;13.93;11.63;;;4.50;99.90;;;;;;5034423;28;20456;-71
2021/11/11 00:47:48;;;;;;;14.90;12.00;;;4.40;99.90;;;;;;5034801;28;20183;-72
2021/11/11 00:50:18;;;;;;;15.53;12.10;;;4.50;99.90;;;;;;5034870;28;20415;-72
2021/11/11 00:52:44;;;;;;;13.50;11.83;;;4.50;99.90;;;;;;5034732;28;20411;-71
2021/11/11 00:55:10;;;;;;;15.83;12.10;;;4.60;99.90;;;;;;5033665;28;20555;-72
2021/11/11 00:57:36;;;;;;;15.50;11.60;;;4.60;99.90;;;;;;5034903;28;20174;-71
2021/11/11 01:00:04;;;;;;;16.93;12.57;;;4.60;99.90;;;;;;5034621;28;20171;-71
2021/11/11 01:02:30;;;;;;;19.83;12.90;;;4.60;99.90;;;;;;5034849;28;20414;-71
2021/11/11 01:04:56;;;;;;;16.90;12.97;;;4.50;99.90;;;;;;5033972;28;20452;-70
2021/11/11 01:07:22;;;;;;;15.93;13.00;;;4.40;99.90;;;;;;5034524;28;20183;-71
2021/11/11 01:09:48;;;;;;;14.20;11.03;;;4.30;99.90;;;;;;5034496;28;20194;-70
2021/11/11 01:12:13;;;;;;;17.30;13.33;;;4.20;99.90;;;;;;5016614;28;20433;-71
2021/11/11 01:14:39;;;;;;;13.97;11.80;;;4.30;99.90;;;;;;5034088;28;20467;-71
2021/11/11 01:17:05;;;;;;;16.23;13.10;;;4.30;99.90;;;;;;5033609;28;20194;-71
2021/11/11 01:19:31;;;;;;;17.43;12.53;;;4.40;99.90;;;;;;5034403;28;20183;-71
2021/11/11 01:21:56;;;;;;;15.63;11.87;;;4.40;99.90;;;;;;5034390;28;20424;-71
2021/11/11 01:24:22;;;;;;;14.63;11.50;;;4.40;99.90;;;;;;5034120;28;20826;-71
2021/11/11 01:26:48;;;;;;;17.90;13.77;;;4.40;99.90;;;;;;5033863;28;20180;-71
2021/11/11 01:29:13;;;;;;;16.47;12.43;;;4.40;99.90;;;;;;5033653;28;20190;-71
2021/11/11 01:31:39;;;;;;;15.37;11.10;;;4.40;99.90;;;;;;5034550;28;20180;-71
2021/11/11 01:34:05;;;;;;;16.10;11.97;;;4.30;99.90;;;;;;5034478;28;20664;-71
2021/11/11 01:36:30;;;;;;;17.13;12.10;;;4.10;99.90;;;;;;5033859;28;20557;-71
2021/11/11 01:38:56;;;;;;;15.33;12.60;;;4.10;99.90;;;;;;5033766;28;20699;-70
2021/11/11 01:41:22;;;;;;;17.57;12.83;;;4.20;99.90;;;;;;5033847;28;20212;-70
2021/11/11 01:43:48;;;;;;;15.20;11.17;;;4.20;99.90;;;;;;5033754;28;20430;-71
2021/11/11 01:46:13;;;;;;;12.17;10.93;;;4.20;99.90;;;;;;5033329;28;20272;-71
2021/11/11 01:48:39;;;;;;;16.47;12.70;;;4.20;99.90;;;;;;5033392;28;20259;-70
2021/11/11 01:51:05;;;;;;;16.77;11.93;;;4.10;99.90;;;;;;5033684;28;20207;-69
2021/11/11 01:53:31;;;;;;;13.73;11.93;;;4.10;99.90;;;;;;5033314;28;20648;-74
2021/11/11 01:55:56;;;;;;;15.73;12.50;;;4.10;99.90;;;;;;5033277;28;20464;-69
2021/11/11 01:58:22;;;;;;;14.87;12.47;;;4.10;99.90;;;;;;5033217;28;20185;-72
2021/11/11 02:00:52;;;;;;;16.80;11.90;;;4.20;99.90;;;;;;5033304;28;20253;-72
2021/11/11 02:03:18;;;;;;;14.23;11.40;;;4.20;99.90;;;;;;5033793;28;20195;-71
2021/11/11 02:05:45;;;;;;;14.60;12.20;;;4.30;99.90;;;;;;5033268;28;20417;-71
2021/11/11 02:08:11;;;;;;;16.70;11.70;;;4.30;99.90;;;;;;5028900;28;20203;-71
2021/11/11 02:10:37;;;;;;;12.33;10.90;;;4.10;99.90;;;;;;5032962;28;20952;-71
2021/11/11 02:13:07;;;;;;;18.50;12.87;;;3.80;99.90;;;;;;5033125;28;20528;-70
2021/11/11 02:15:32;;;;;;;15.70;12.67;;;3.60;99.90;;;;;;5032737;28;20206;-71
2021/11/11 02:17:59;;;;;;;17.10;12.37;;;3.50;99.90;;;;;;5033317;28;20422;-70
2021/11/11 02:20:33;;;;;;;19.73;14.20;;;3.60;99.90;;;;;;5032730;28;20476;-71
2021/11/11 02:23:01;;;;;;;18.43;13.40;;;3.70;99.90;;;;;;5033185;28;20957;-71
2021/11/11 02:25:28;;;;;;;15.70;11.83;;;3.80;99.90;;;;;;5032985;28;20432;-71
2021/11/11 02:28:03;;;;;;;14.57;12.53;;;3.80;99.90;;;;;;5015320;28;20460;-71
2021/11/11 02:30:31;;;;;;;17.27;11.73;;;3.90;99.90;;;;;;5014467;28;20421;-71
2021/11/11 02:32:57;;;;;;;13.70;11.10;;;4.00;99.90;;;;;;5032863;28;20837;-71
2021/11/11 02:35:23;;;;;;;15.90;11.97;;;4.00;99.90;;;;;;5032345;28;20453;-71
2021/11/11 02:37:51;;;;;;;15.70;12.47;;;4.00;99.90;;;;;;5032865;28;20417;-70
2021/11/11 02:40:23;;;;;;;16.97;12.10;;;3.90;99.90;;;;;;5031852;28;20171;-70
2021/11/11 02:42:49;;;;;;;14.63;11.43;;;3.80;99.90;;;;;;5032517;28;20467;-71
2021/11/11 02:45:21;;;;;;;13.27;10.80;;;3.50;99.90;;;;;;5032391;28;20413;-70
2021/11/11 02:47:47;;;;;;;18.53;11.77;;;3.40;99.90;;;;;;5032678;28;20432;-71
2021/11/11 02:50:14;;;;;;;20.50;12.77;;;3.40;99.90;;;;;;5014666;28;20417;-70
2021/11/11 02:52:40;;;;;;;17.23;13.10;;;3.30;99.90;;;;;;5014320;28;20425;-71
2021/11/11 02:55:07;;;;;;;16.07;12.63;;;3.30;99.90;;;;;;5032190;28;20515;-71
2021/11/11 02:57:36;;;;;;;14.47;11.60;;;3.30;99.90;;;;;;5032339;28;20406;-70
2021/11/11 03:00:16;;;;;;;17.47;12.03;;;3.30;99.90;;;;;;5032186;28;20766;-71
2021/11/11 03:02:44;;;;;;;17.47;11.93;;;3.30;99.90;;;;;;5031836;28;20413;-71
2021/11/11 03:05:12;;;;;;;17.90;11.70;;;3.30;99.90;;;;;;5032352;28;20510;-71
2021/11/11 03:07:38;;;;;;;17.73;11.93;;;3.30;99.90;;;;;;5032287;28;20491;-71
2021/11/11 03:10:06;;;;;;;17.57;11.37;;;3.20;99.90;;;;;;5032118;28;20460;-71
2021/11/11 03:12:32;;;;;;;16.00;12.03;;;3.30;99.90;;;;;;5032300;28;20448;-71
2021/11/11 03:14:57;;;;;;;16.33;12.33;;;3.40;99.90;;;;;;5031339;28;20484;-71
2021/11/11 03:17:24;;;;;;;15.80;11.97;;;3.50;99.90;;;;;;5032204;28;20171;-71
2021/11/11 03:19:50;;;;;;;16.10;12.43;;;3.50;99.90;;;;;;5032078;28;20187;-71
2021/11/11 03:22:18;;;;;;;16.20;11.77;;;3.50;99.90;;;;;;5032920;28;20528;-70
2021/11/11 03:24:44;;;;;;;15.00;11.63;;;3.60;99.90;;;;;;5033891;28;20622;-70
2021/11/11 03:27:10;;;;;;;18.33;11.83;;;3.60;99.90;;;;;;5034198;28;20405;-71
2021/11/11 03:29:36;;;;;;;17.50;11.43;;;3.60;99.90;;;;;;5048748;22;20239;-71
2021/11/11 03:32:03;;;;;;;15.67;11.43;;;3.70;99.90;;;;;;5023576;28;20516;-72
2021/11/11 03:34:29;;;;;;;15.70;12.30;;;3.50;99.90;;;;;;5011972;28;20454;-72
2021/11/11 03:36:56;;;;;;;18.80;12.63;;;3.40;99.90;;;;;;5011719;28;20926;-72
2021/11/11 03:39:24;;;;;;;16.13;12.63;;;3.20;99.90;;;;;;5012255;28;20205;-74
2021/11/11 03:41:52;;;;;;;17.60;12.60;;;3.10;99.90;;;;;;5012011;28;20394;-72
2021/11/11 03:44:20;;;;;;;14.50;12.00;;;3.10;99.90;;;;;;5012065;28;20504;-72
2021/11/11 03:46:47;;;;;;;20.10;12.57;;;3.20;99.90;;;;;;4995612;28;20439;-72
2021/11/11 03:49:13;;;;;;;19.50;11.90;;;3.20;99.90;;;;;;4992285;28;20435;-72
2021/11/11 03:51:40;;;;;;;15.17;12.23;;;3.10;99.90;;;;;;4991891;28;20773;-71
2021/11/11 03:54:06;;;;;;;15.97;13.10;;;2.80;99.90;;;;;;4992455;28;20497;-74
2021/11/11 03:56:36;;;;;;;17.17;12.60;;;2.80;99.90;;;;;;4975539;28;20943;-74
2021/11/11 03:59:02;;;;;;;16.33;12.30;;;2.90;99.90;;;;;;4992337;28;20292;-73
2021/11/11 04:01:28;;;;;;;17.90;11.50;;;2.90;99.90;;;;;;4992190;28;20760;-74
2021/11/11 04:03:54;;;;;;;17.00;13.40;;;3.10;99.90;;;;;;4992472;28;20510;-74
2021/11/11 04:06:20;;;;;;;15.50;11.97;;;3.20;99.90;;;;;;4992870;28;20415;-73
2021/11/11 04:08:46;;;;;;;17.80;13.37;;;3.20;99.90;;;;;;4987553;28;20290;-74
2021/11/11 04:11:11;;;;;;;18.70;11.93;;;3.30;99.90;;;;;;5011544;28;20498;-73
2021/11/11 04:13:38;;;;;;;17.97;12.10;;;3.40;99.90;;;;;;5011934;28;20237;-73
2021/11/11 04:16:04;;;;;;;17.90;12.70;;;3.50;99.90;;;;;;5011759;28;20449;-72
2021/11/11 04:18:29;;;;;;;19.07;14.80;;;3.50;99.90;;;;;;4998009;28;20600;-73
2021/11/11 04:20:56;;;;;;;17.30;11.80;;;3.50;99.90;;;;;;4974418;28;20416;-73
2021/11/11 04:23:24;;;;;;;16.93;11.97;;;3.50;99.90;;;;;;4992470;28;20173;-73
2021/11/11 04:28:20;;;;;;;17.17;11.87;;;3.20;99.90;;;;;;4993770;28;20423;-73
2021/11/11 04:30:48;;;;;;;17.07;12.67;;;3.10;99.90;;;;;;5009485;28;20423;-73
2021/11/11 04:33:15;;;;;;;17.17;12.20;;;3.20;99.90;;;;;;5011588;28;20786;-73
2021/11/11 04:35:44;;;;;;;18.07;13.20;;;3.20;99.90;;;;;;4991931;28;20454;-72
2021/11/11 04:38:35;;;;;;;15.10;12.93;;;3.10;99.90;;;;;;4979305;28;20450;-71
2021/11/11 04:59:58;;;;;;;15.07;12.27;;;2.90;99.90;;;;;;4993357;28;20450;-72
2021/11/11 05:02:39;;;;;;;15.80;12.30;;;3.00;99.90;;;;;;4974351;28;20419;-74
2021/11/11 05:05:06;;;;;;;16.07;12.10;;;3.10;99.90;;;;;;4993872;28;20480;-72
2021/11/11 05:07:32;;;;;;;18.60;12.77;;;3.20;99.90;;;;;;4995404;28;20940;-72
2021/11/11 05:09:57;;;;;;;16.40;11.93;;;3.20;99.90;;;;;;4978239;28;20450;-72
2021/11/11 05:12:23;;;;;;;17.30;12.93;;;3.20;99.90;;;;;;4996046;28;20180;-72
2021/11/11 05:14:48;;;;;;;13.83;10.80;;;3.30;99.90;;;;;;4995191;28;21009;-72
2021/11/11 05:17:14;;;;;;;15.07;11.60;;;3.40;99.90;;;;;;4995426;28;20697;-74
2021/11/11 05:19:42;;;;;;;18.60;12.33;;;3.40;99.90;;;;;;4995481;28;20614;-74
2021/11/11 05:22:07;;;;;;;17.50;13.03;;;3.40;99.90;;;;;;4996128;28;20164;-73
2021/11/11 05:24:33;;;;;;;16.27;12.97;;;3.30;99.90;;;;;;4995093;28;20419;-73
2021/11/11 05:27:04;;;;;;;15.33;12.27;;;3.20;99.90;;;;;;4995286;28;20176;-72
2021/11/11 05:29:30;;;;;;;16.50;11.70;;;3.30;99.90;;;;;;4994994;28;20207;-74
2021/11/11 05:31:56;;;;;;;18.27;12.20;;;3.30;99.90;;;;;;5001729;28;20434;-72
2021/11/11 05:34:22;;;;;;;16.80;12.70;;;3.20;99.90;;;;;;5004390;28;20501;-72
2021/11/11 05:36:48;;;;;;;15.97;13.10;;;3.10;99.90;;;;;;5005900;28;20235;-72
2021/11/11 05:39:14;;;;;;;14.53;11.73;;;3.10;99.90;;;;;;5007539;28;20482;-72
2021/11/11 05:41:40;;;;;;;17.90;13.40;;;3.20;99.90;;;;;;5012429;28;20182;-71
2021/11/11 05:44:06;;;;;;;23.43;16.97;;;3.30;99.90;;;;;;5011085;28;20180;-72
2021/11/11 05:46:31;;;;;;;16.03;14.13;;;3.20;99.90;;;;;;5012360;28;20985;-72
2021/11/11 05:48:57;;;;;;;15.77;12.73;;;3.30;99.90;;;;;;5014249;28;20427;-72
2021/11/11 05:51:23;;;;;;;17.87;12.50;;;3.30;99.90;;;;;;5006678;28;20235;-71
2021/11/11 05:53:49;;;;;;;15.50;12.90;;;3.30;99.90;;;;;;4994983;28;20168;-73
2021/11/11 05:56:14;;;;;;;33.73;22.47;;;3.40;99.90;;;;;;4995497;28;20703;-73
2021/11/11 05:58:40;;;;;;;32.77;20.40;;;3.40;99.90;;;;;;5019924;28;20290;-72
2021/11/11 06:01:05;;;;;;;23.47;17.23;;;3.40;99.90;;;;;;5019728;28;20330;-72
2021/11/11 06:03:32;;;;;;;24.03;19.30;;;3.40;99.90;;;;;;5022576;28;20213;-72
2021/11/11 06:05:58;;;;;;;24.53;16.07;;;3.40;99.90;;;;;;5020224;28;20581;-73
2021/11/11 06:08:24;;;;;;;19.27;14.23;;;3.40;99.90;;;;;;5022876;28;20454;-73
2021/11/11 06:10:49;;;;;;;19.90;15.20;;;3.50;99.90;;;;;;5024764;28;21019;-72
2021/11/11 06:13:15;;;;;;;16.87;13.43;;;3.50;99.90;;;;;;4993661;28;20242;-72
2021/11/11 06:15:41;;;;;;;20.40;13.20;;;3.50;99.90;;;;;;5009915;28;20348;-72
2021/11/11 06:18:09;;;;;;;17.63;12.93;;;3.40;99.90;;;;;;5012863;28;20243;-73
2021/11/11 06:20:42;;;;;;;19.50;12.00;;;3.40;99.90;;;;;;5012553;28;20860;-72
2021/11/11 06:23:08;;;;;;;21.17;14.40;;;3.20;99.90;;;;;;5013163;28;20463;-73
2021/11/11 06:25:33;;;;;;;19.70;13.00;;;3.10;99.90;;;;;;5004899;28;20459;-71
2021/11/11 06:27:59;;;;;;;17.23;13.13;;;3.20;99.90;;;;;;4975594;28;20558;-73
2021/11/11 06:30:25;;;;;;;18.63;12.50;;;3.20;99.90;;;;;;5002970;28;20215;-71
2021/11/11 06:32:50;;;;;;;19.27;13.77;;;3.30;99.90;;;;;;5009337;28;20260;-70
2021/11/11 06:35:16;;;;;;;19.17;12.63;;;3.20;99.90;;;;;;5005406;28;20315;-71
2021/11/11 06:37:41;;;;;;;25.60;17.77;;;3.20;99.90;;;;;;5021226;28;20211;-69
2021/11/11 06:40:07;;;;;;;20.27;15.13;;;3.20;99.90;;;;;;4983029;28;20211;-71
2021/11/11 06:42:33;;;;;;;19.33;12.60;;;3.20;99.90;;;;;;5009948;28;20221;-71
2021/11/11 06:44:59;;;;;;;15.23;12.07;;;3.30;99.90;;;;;;5009150;28;20465;-71
2021/11/11 06:47:25;;;;;;;21.13;13.53;;;3.40;99.90;;;;;;4992210;28;20184;-70
2021/11/11 06:49:50;;;;;;;16.60;13.40;;;3.40;99.90;;;;;;5009511;28;20477;-71
2021/11/11 06:52:16;;;;;;;18.93;13.43;;;3.40;99.90;;;;;;5006726;28;20223;-71
2021/11/11 06:54:42;;;;;;;22.70;20.37;;;3.50;99.90;;;;;;4994450;28;20825;-71
2021/11/11 06:57:08;;;;;;;15.53;13.53;;;3.50;99.90;;;;;;5032310;28;20253;-71
2021/11/11 06:59:34;;;;;;;18.10;13.30;;;3.50;99.90;;;;;;5031309;28;20517;-71
2021/11/11 07:01:59;;;;;;;17.30;13.80;;;3.50;99.90;;;;;;5033685;28;20838;-70
2021/11/11 07:04:26;;;;;;;19.20;13.77;;;3.50;99.90;;;;;;4993647;28;20187;-70
2021/11/11 07:06:52;;;;;;;17.33;13.20;;;3.60;99.90;;;;;;4991617;28;20803;-70
2021/11/11 07:09:18;;;;;;;17.80;12.97;;;3.60;99.90;;;;;;4993002;28;20542;-71
2021/11/11 07:11:44;;;;;;;20.03;13.53;;;3.60;99.90;;;;;;4976532;28;20411;-71
2021/11/11 07:14:10;;;;;;;20.67;13.57;;;3.60;99.90;;;;;;5011016;28;20278;-72
2021/11/11 07:16:36;;;;;;;17.73;13.50;;;3.70;99.90;;;;;;5015487;28;20164;-70
2021/11/11 07:19:01;;;;;;;16.30;13.00;;;3.70;99.90;;;;;;5014329;28;20844;-71
2021/11/11 07:21:27;;;;;;;18.27;13.23;;;3.60;99.90;;;;;;5014450;28;20763;-71
2021/11/11 07:23:52;;;;;;;18.00;13.40;;;3.70;99.90;;;;;;4995357;28;20182;-72
2021/11/11 07:26:18;;;;;;;17.40;12.83;;;3.70;99.90;;;;;;5012368;28;20176;-70
2021/11/11 07:28:44;;;;;;;20.87;13.80;;;3.60;99.90;;;;;;5013879;28;20207;-71
2021/11/11 07:31:10;;;;;;;21.37;15.07;;;3.70;99.90;;;;;;5012725;28;20222;-71
2021/11/11 07:33:36;;;;;;;19.10;13.90;;;3.70;99.90;;;;;;4994813;28;20406;-71
2021/11/11 07:36:04;;;;;;;16.00;13.13;;;3.80;99.90;;;;;;5010056;28;20522;-71
2021/11/11 07:38:30;;;;;;;17.50;14.03;;;3.80;99.90;;;;;;5012834;28;20202;-71
2021/11/11 07:40:55;;;;;;;16.77;13.50;;;3.90;99.90;;;;;;5011612;28;20407;-71
2021/11/11 07:43:21;;;;;;;16.27;13.43;;;3.90;99.90;;;;;;5011032;28;20423;-70
2021/11/11 07:45:47;;;;;;;17.87;14.83;;;3.90;99.90;;;;;;5010289;28;20171;-70
2021/11/11 07:48:13;;;;;;;20.17;13.43;;;3.90;99.90;;;;;;5012369;28;20532;-71
2021/11/11 07:50:41;;;;;;;17.70;14.37;;;4.00;99.90;;;;;;5012174;28;20413;-71
2021/11/11 07:53:10;;;;;;;17.00;13.83;;;4.00;99.90;;;;;;4993918;28;20187;-71
2021/11/11 07:55:39;;;;;;;19.27;14.50;;;4.00;99.90;;;;;;4983711;28;20843;-70
2021/11/11 07:58:05;;;;;;;18.50;14.60;;;4.00;99.90;;;;;;5003961;28;20498;-71
2021/11/11 08:00:31;;;;;;;20.10;15.00;;;4.00;99.90;;;;;;5007523;28;20418;-70
2021/11/11 08:02:57;;;;;;;17.20;14.50;;;4.00;99.90;;;;;;4987893;28;20415;-71
2021/11/11 08:05:23;;;;;;;23.17;15.70;;;4.10;99.90;;;;;;5006520;28;20933;-70
2021/11/11 08:07:50;;;;;;;29.90;15.30;;;4.10;99.90;;;;;;4999332;28;20208;-70
2021/11/11 08:10:22;;;;;;;16.93;13.00;;;4.10;99.90;;;;;;5008451;28;20235;-69
2021/11/11 08:12:48;;;;;;;22.40;14.20;;;4.10;99.90;;;;;;4993119;28;20434;-69
2021/11/11 08:15:15;;;;;;;19.53;14.20;;;4.10;99.90;;;;;;5011137;28;20500;-71
2021/11/11 08:17:41;;;;;;;17.40;15.20;;;4.20;99.90;;;;;;5004260;28;20956;-72
2021/11/11 08:20:08;;;;;;;18.40;14.50;;;4.20;99.90;;;;;;5008474;28;20811;-69
2021/11/11 08:22:34;;;;;;;23.23;15.93;;;4.20;99.90;;;;;;4990826;28;20429;-70
2021/11/11 08:25:00;;;;;;;18.17;14.47;;;4.20;99.90;;;;;;5008148;28;20423;-69
2021/11/11 08:27:26;;;;;;;17.73;14.33;;;4.30;99.90;;;;;;5007179;28;20932;-71
2021/11/11 08:29:53;;;;;;;19.70;13.93;;;4.30;99.90;;;;;;4994536;28;20462;-72
2021/11/11 08:32:19;;;;;;;19.97;15.37;;;4.30;99.90;;;;;;4999893;28;20515;-71
2021/11/11 08:34:46;;;;;;;20.13;14.13;;;4.30;99.90;;;;;;4990632;28;20560;-71
2021/11/11 08:37:12;;;;;;;18.90;14.40;;;4.40;99.90;;;;;;4993095;28;20438;-71
2021/11/11 08:39:39;;;;;;;20.93;14.43;;;4.40;99.90;;;;;;5000381;28;20443;-71
2021/11/11 08:42:06;;;;;;;19.10;14.63;;;4.40;99.90;;;;;;4992149;28;20489;-70
2021/11/11 08:44:32;;;;;;;19.70;15.40;;;4.50;99.90;;;;;;5012383;28;20465;-71
2021/11/11 08:46:58;;;;;;;21.97;15.40;;;4.50;99.90;;;;;;4995571;28;20458;-71
2021/11/11 08:49:24;;;;;;;20.05;16.40;;;4.50;99.90;;;;;;5008077;28;20427;-70
2021/11/11 08:51:51;;;;;;;22.43;19.10;;;4.50;99.90;;;;;;5008092;28;20193;-70
2021/11/11 08:54:19;;;;;;;18.63;15.53;;;4.60;99.90;;;;;;5011476;28;20917;-70
2021/11/11 08:56:48;;;;;;;19.30;15.83;;;4.60;99.90;;;;;;5012097;28;21053;-70
2021/11/11 08:59:21;;;;;;;21.50;16.23;;;4.70;99.90;;;;;;5011632;28;20447;-70
2021/11/11 09:01:48;;;;;;;21.20;15.60;;;4.70;99.90;;;;;;5013009;28;20532;-70
2021/11/11 09:04:15;;;;;;;20.40;16.13;;;4.70;99.90;;;;;;5011803;28;20427;-71
2021/11/11 09:06:42;;;;;;;27.30;16.60;;;4.80;99.90;;;;;;5012769;28;20415;-72
2021/11/11 09:09:08;;;;;;;19.97;16.50;;;4.90;99.90;;;;;;5008358;28;20475;-71
2021/11/11 09:11:34;;;;;;;20.43;15.90;;;5.00;99.90;;;;;;5011510;28;20411;-72
2021/11/11 09:14:00;;;;;;;27.80;17.87;;;5.00;99.90;;;;;;4990858;28;20426;-72
2021/11/11 09:16:26;;;;;;;18.80;14.90;;;5.10;99.90;;;;;;5011221;28;20485;-71
2021/11/11 09:18:53;;;;;;;18.77;16.03;;;5.20;99.90;;;;;;5011504;28;20583;-71
2021/11/11 09:21:20;;;;;;;23.20;17.00;;;5.30;99.90;;;;;;5012379;28;20655;-70
2021/11/11 09:23:47;;;;;;;29.83;18.33;;;5.40;99.90;;;;;;5011851;28;20430;-71
2021/11/11 09:26:13;;;;;;;22.53;17.30;;;5.50;99.90;;;;;;4993413;28;20433;-71
2021/11/11 09:28:39;;;;;;;19.73;16.63;;;5.50;99.90;;;;;;5010825;28;20939;-70
2021/11/11 09:31:09;;;;;;;23.83;17.03;;;5.60;99.90;;;;;;4993320;28;20218;-70
2021/11/11 09:33:35;;;;;;;23.87;17.80;;;5.70;99.90;;;;;;5011154;28;20417;-70
2021/11/11 09:36:00;;;;;;;21.70;16.57;;;5.80;99.90;;;;;;4983965;28;20462;-70
2021/11/11 09:38:26;;;;;;;22.13;18.30;;;5.80;99.90;;;;;;5010855;28;20579;-70
2021/11/11 09:40:53;;;;;;;24.43;17.33;;;5.90;99.90;;;;;;5010679;28;20275;-71
2021/11/11 09:43:19;;;;;;;25.83;19.70;;;6.00;99.90;;;;;;4993058;28;20191;-70
2021/11/11 09:45:46;;;;;;;20.23;16.47;;;6.00;99.90;;;;;;5008655;28;20434;-71
2021/11/11 09:48:14;;;;;;;27.23;18.33;;;6.10;99.90;;;;;;5010722;28;20195;-71
2021/11/11 09:50:40;;;;;;;24.80;18.83;;;6.20;99.90;;;;;;5010557;28;21033;-71
2021/11/11 09:53:11;;;;;;;23.27;18.37;;;6.30;99.90;;;;;;5010189;28;20422;-71
2021/11/11 09:58:34;;;;;;;22.37;17.07;;;6.40;99.90;;;;;;5005208;28;20450;-70
2021/11/11 10:01:02;;;;;;;23.70;18.00;;;6.40;99.90;;;;;;5005648;28;20433;-70
2021/11/11 10:03:28;;;;;;;27.83;19.43;;;6.60;99.90;;;;;;5008467;28;20855;-71
2021/11/11 10:05:54;;;;;;;26.33;19.60;;;6.60;99.90;;;;;;5008741;28;20426;-70
2021/11/11 10:08:33;;;;;;;21.90;17.20;;;6.70;99.90;;;;;;4986984;28;20187;-70
2021/11/11 10:10:59;;;;;;;31.87;20.07;;;6.80;99.90;;;;;;5010014;28;20918;-71
2021/11/11 10:13:26;;;;;;;23.33;18.07;;;6.90;99.90;;;;;;5006998;28;20441;-71
2021/11/11 10:16:02;;;;;;;26.73;20.17;;;7.00;99.90;;;;;;5003029;28;20470;-70
2021/11/11 10:18:43;;;;;;;25.77;19.33;;;7.10;99.90;;;;;;4986136;28;20825;-71
2021/11/11 10:21:28;;;;;;;28.00;20.40;;;7.10;99.90;;;;;;4996554;28;20447;-71
2021/11/11 10:23:57;;;;;;;28.20;21.07;;;7.30;99.90;;;;;;5005660;28;20426;-71
2021/11/11 10:26:38;;;;;;;22.10;18.80;;;7.30;99.90;;;;;;5010593;28;20426;-71
2021/11/11 10:29:19;;;;;;;28.23;19.03;;;7.40;99.90;;;;;;4997227;28;20513;-71
2021/11/11 10:31:54;;;;;;;27.63;19.13;;;7.60;99.90;;;;;;5027125;23;20985;-71
2021/11/11 10:34:20;;;;;;;28.77;18.90;;;7.70;99.90;;;;;;5004896;28;20517;-71
2021/11/11 10:36:49;;;;;;;24.27;18.20;;;7.80;99.90;;;;;;5014758;28;20518;-71
2021/11/11 10:39:22;;;;;;;24.10;19.43;;;7.90;99.90;;;;;;5016733;28;20211;-71
2021/11/11 10:41:48;;;;;;;27.83;20.13;;;8.00;99.90;;;;;;5004544;28;20494;-72
2021/11/11 10:44:20;;;;;;;23.87;19.23;;;8.10;99.90;;;;;;5017259;28;20418;-72
2021/11/11 10:46:49;;;;;;;24.97;19.57;;;8.20;99.90;;;;;;5034595;28;20441;-72
2021/11/11 10:49:24;;;;;;;27.53;20.30;;;8.30;99.90;;;;;;5035454;28;20409;-72
2021/11/11 10:51:50;;;;;;;23.53;19.17;;;8.50;99.90;;;;;;5034314;28;20438;-72
2021/11/11 10:54:16;;;;;;;27.10;19.83;;;8.60;99.90;;;;;;5034058;28;20866;-71
2021/11/11 10:56:45;;;;;;;31.33;20.67;;;8.70;99.90;;;;;;5033810;28;20594;-72
2021/11/11 10:59:14;;;;;;;25.73;19.50;;;8.80;99.90;;;;;;5034275;28;20612;-71
2021/11/11 11:01:41;;;;;;;25.47;18.73;;;8.90;99.90;;;;;;5032928;28;20465;-71
2021/11/11 11:04:26;;;;;;;28.70;20.50;;;8.90;99.90;;;;;;5033591;28;20420;-70
2021/11/11 11:07:10;;;;;;;24.53;20.13;;;9.00;99.90;;;;;;5034337;28;20413;-73
2021/11/11 11:09:35;;;;;;;29.13;19.20;;;9.00;99.90;;;;;;5034745;28;20810;-70
2021/11/11 11:12:01;;;;;;;24.20;20.00;;;9.10;99.90;;;;;;5034631;28;20475;-71
2021/11/11 11:14:26;;;;;;;27.13;20.53;;;9.20;99.90;;;;;;5034555;28;20176;-72
2021/11/11 11:16:52;;;;;;;27.50;19.90;;;9.30;99.90;;;;;;5033708;28;20181;-72
2021/11/11 11:19:18;;;;;;;25.13;19.70;;;9.40;99.90;;;;;;5035055;28;20173;-70
2021/11/11 11:21:48;;;;;;;28.43;21.27;;;9.40;99.90;;;;;;5016378;28;20200;-71
2021/11/11 11:24:21;;;;;;;28.27;21.47;;;9.40;99.90;;;;;;5034639;28;20450;-71
2021/11/11 11:26:56;;;;;;;26.83;20.20;;;9.40;99.90;;;;;;5034361;28;20528;-72
2021/11/11 11:29:36;;;;;;;30.07;21.30;;;9.40;99.90;;;;;;5034808;28;20398;-72
2021/11/11 11:32:07;;;;;;;31.10;23.03;;;9.40;99.90;;;;;;5033943;28;20476;-72
2021/11/11 11:34:36;;;;;;;31.23;22.27;;;9.40;99.90;;;;;;5034927;28;20466;-71
2021/11/11 11:37:03;;;;;;;29.07;21.40;;;9.50;99.90;;;;;;5016094;28;20412;-72
2021/11/11 11:39:29;;;;;;;32.10;22.87;;;9.60;99.90;;;;;;5034424;28;20497;-72
2021/11/11 11:41:58;;;;;;;29.17;24.43;;;9.60;99.90;;;;;;5034246;28;20877;-71
2021/11/11 11:44:34;;;;;;;34.30;23.77;;;9.60;99.90;;;;;;5034451;28;20645;-72
2021/11/11 11:47:11;;;;;;;33.93;25.00;;;9.60;99.90;;;;;;5017579;28;20713;-72
2021/11/11 11:49:39;;;;;;;34.00;24.40;;;9.60;99.90;;;;;;5035543;28;20586;-71
2021/11/11 11:52:07;;;;;;;29.20;22.70;;;9.50;99.90;;;;;;5035316;28;20490;-71
2021/11/11 11:54:49;;;;;;;31.57;24.27;;;9.40;99.90;;;;;;5035597;28;20544;-71
2021/11/11 11:57:21;;;;;;;32.67;22.77;;;9.30;99.90;;;;;;5051898;28;20492;-71
2021/11/11 11:59:53;;;;;;;30.73;22.20;;;9.30;99.90;;;;;;5056472;28;20496;-70
2021/11/11 12:03:08;;;;;;;30.57;22.67;;;9.30;99.90;;;;;;5055978;28;20454;-70
2021/11/11 12:07:59;;;;;;;28.83;22.07;;;9.40;99.90;;;;;;5055737;28;20422;-70
2021/11/11 12:15:53;;;;;;;31.07;22.50;;;9.50;99.90;;;;;;5039818;28;20478;-71
2021/11/11 12:29:48;;;;;;;31.70;21.63;;;9.60;99.90;;;;;;5040200;28;20899;-71
2021/11/11 12:38:49;;;;;;;29.70;21.00;;;9.70;99.90;;;;;;5034575;28;20924;-71
2021/11/11 12:41:17;;;;;;;28.17;22.10;;;9.70;99.90;;;;;;5019251;28;20454;-72
2021/11/11 12:43:44;;;;;;;34.77;23.90;;;9.60;99.90;;;;;;5036880;28;20764;-71
2021/11/11 12:46:40;;;;;;;27.67;21.33;;;9.70;99.90;;;;;;5037292;28;20433;-74
2021/11/11 12:49:44;;;;;;;26.97;20.63;;;9.70;99.90;;;;;;5036244;28;20426;-72
2021/11/11 12:52:13;;;;;;;27.57;20.53;;;9.70;99.90;;;;;;4976435;28;20467;-72
2021/11/11 12:54:44;;;;;;;25.80;17.03;;;9.80;99.90;;;;;;4976217;28;20456;-73
2021/11/11 12:57:11;;;;;;;27.20;19.00;;;9.80;99.90;;;;;;4976973;28;20532;-71
2021/11/11 12:59:37;;;;;;;30.10;19.30;;;9.80;99.90;;;;;;4976251;28;20848;-69
2021/11/11 13:02:07;;;;;;;30.10;18.93;;;9.80;99.90;;;;;;4975769;28;20441;-70
2021/11/11 13:04:49;;;;;;;25.33;19.23;;;9.80;99.90;;;;;;4975704;28;20448;-71
2021/11/11 13:07:24;;;;;;;23.93;17.13;;;9.80;99.90;;;;;;4975597;28;20415;-71
2021/11/11 13:10:15;;;;;;;24.20;18.07;;;9.80;99.90;;;;;;4975797;28;20506;-71
2021/11/11 13:12:41;;;;;;;23.97;18.70;;;9.70;99.90;;;;;;4975259;28;20898;-71
2021/11/11 13:15:13;;;;;;;29.10;18.80;;;9.80;99.90;;;;;;4975629;28;20485;-72
2021/11/11 13:17:44;;;;;;;33.10;20.57;;;9.80;99.90;;;;;;4975318;28;20421;-71
2021/11/11 13:20:40;;;;;;;25.70;19.47;;;9.70;99.90;;;;;;4959580;28;20456;-72
2021/11/11 13:23:35;;;;;;;29.47;19.47;;;9.80;99.90;;;;;;5009890;28;20439;-73
2021/11/11 13:54:56;;;;;;;27.20;17.90;;;11.10;99.90;;;;;;5035324;28;20419;-72
2021/11/11 14:28:15;;;;;;;29.63;22.10;;;11.10;99.90;;;;;;5034067;28;20405;-71
2021/11/11 15:17:02;;;;;;;40.40;25.93;;;10.70;99.90;;;;;;5035064;28;20412;-72